sensor_id;sensor_type;location;lat;lon;timestamp;P1;durP1;ratioP1;P2;durP2;ratioP2
36391;SDS011;22639;42.690;23.356;2023-08-12T00:01:54;4.68;;;4.22;;
36391;SDS011;22639;42.690;23.356;2023-08-12T00:04:19;4.40;;;3.95;;
36391;SDS011;22639;42.690;23.356;2023-08-12T00:06:45;4.82;;;4.32;;
36391;SDS011;22639;42.690;23.356;2023-08-12T00:09:11;4.50;;;4.10;;
36391;SDS011;22639;42.690;23.356;2023-08-12T00:11:37;4.63;;;4.10;;
36391;SDS011;22639;42.690;23.356;2023-08-12T00:14:02;4.88;;;4.32;;
36391;SDS011;22639;42.690;23.356;2023-08-12T00:16:27;6.00;;;4.32;;
36391;SDS011;22639;42.690;23.356;2023-08-12T00:18:53;4.50;;;4.10;;
36391;SDS011;22639;42.690;23.356;2023-08-12T00:21:18;5.57;;;4.57;;
36391;SDS011;22639;42.690;23.356;2023-08-12T00:23:45;4.10;;;3.80;;
36391;SDS011;22639;42.690;23.356;2023-08-12T00:26:10;4.03;;;3.65;;
36391;SDS011;22639;42.690;23.356;2023-08-12T00:28:35;4.45;;;4.05;;
36391;SDS011;22639;42.690;23.356;2023-08-12T00:31:01;3.88;;;3.50;;
36391;SDS011;22639;42.690;23.356;2023-08-12T00:33:26;3.85;;;3.40;;
36391;SDS011;22639;42.690;23.356;2023-08-12T00:35:51;5.10;;;4.50;;
36391;SDS011;22639;42.690;23.356;2023-08-12T00:38:16;4.28;;;3.88;;
36391;SDS011;22639;42.690;23.356;2023-08-12T00:40:42;4.40;;;3.85;;
36391;SDS011;22639;42.690;23.356;2023-08-12T00:43:07;4.03;;;3.70;;
36391;SDS011;22639;42.690;23.356;2023-08-12T00:45:34;4.75;;;4.35;;
36391;SDS011;22639;42.690;23.356;2023-08-12T00:48:01;5.60;;;4.03;;
36391;SDS011;22639;42.690;23.356;2023-08-12T00:50:27;3.63;;;3.33;;
36391;SDS011;22639;42.690;23.356;2023-08-12T00:52:53;5.43;;;3.95;;
36391;SDS011;22639;42.690;23.356;2023-08-12T00:55:18;4.25;;;3.17;;
36391;SDS011;22639;42.690;23.356;2023-08-12T00:57:43;4.32;;;3.92;;
36391;SDS011;22639;42.690;23.356;2023-08-12T01:00:09;4.50;;;4.00;;
36391;SDS011;22639;42.690;23.356;2023-08-12T01:02:35;3.83;;;3.40;;
36391;SDS011;22639;42.690;23.356;2023-08-12T01:05:00;4.05;;;3.65;;
36391;SDS011;22639;42.690;23.356;2023-08-12T01:07:25;4.25;;;3.80;;
36391;SDS011;22639;42.690;23.356;2023-08-12T01:09:50;4.60;;;4.20;;
36391;SDS011;22639;42.690;23.356;2023-08-12T01:17:15;4.28;;;3.88;;
36391;SDS011;22639;42.690;23.356;2023-08-12T01:19:40;5.80;;;3.45;;
36391;SDS011;22639;42.690;23.356;2023-08-12T01:22:09;3.58;;;3.28;;
36391;SDS011;22639;42.690;23.356;2023-08-12T01:24:38;4.63;;;3.72;;
36391;SDS011;22639;42.690;23.356;2023-08-12T01:27:03;3.63;;;3.33;;
36391;SDS011;22639;42.690;23.356;2023-08-12T01:29:29;3.80;;;3.50;;
36391;SDS011;22639;42.690;23.356;2023-08-12T01:31:55;5.65;;;3.88;;
36391;SDS011;22639;42.690;23.356;2023-08-12T01:34:40;5.60;;;3.72;;
36391;SDS011;22639;42.690;23.356;2023-08-12T01:37:07;3.70;;;3.40;;
36391;SDS011;22639;42.690;23.356;2023-08-12T01:39:34;4.05;;;3.65;;
36391;SDS011;22639;42.690;23.356;2023-08-12T01:42:00;3.75;;;3.45;;
36391;SDS011;22639;42.690;23.356;2023-08-12T01:44:26;4.35;;;3.95;;
36391;SDS011;22639;42.690;23.356;2023-08-12T01:46:51;4.50;;;4.00;;
36391;SDS011;22639;42.690;23.356;2023-08-12T01:49:16;3.50;;;3.20;;
36391;SDS011;22639;42.690;23.356;2023-08-12T01:51:41;7.60;;;3.88;;
36391;SDS011;22639;42.690;23.356;2023-08-12T01:54:06;3.97;;;3.58;;
36391;SDS011;22639;42.690;23.356;2023-08-12T01:56:32;3.67;;;3.38;;
36391;SDS011;22639;42.690;23.356;2023-08-12T01:58:57;3.85;;;3.55;;
36391;SDS011;22639;42.690;23.356;2023-08-12T02:01:22;4.68;;;4.28;;
36391;SDS011;22639;42.690;23.356;2023-08-12T02:03:47;4.53;;;4.13;;
36391;SDS011;22639;42.690;23.356;2023-08-12T02:06:13;3.88;;;3.58;;
36391;SDS011;22639;42.690;23.356;2023-08-12T02:08:38;4.53;;;4.05;;
36391;SDS011;22639;42.690;23.356;2023-08-12T02:11:04;4.32;;;3.92;;
36391;SDS011;22639;42.690;23.356;2023-08-12T02:13:29;4.10;;;3.80;;
36391;SDS011;22639;42.690;23.356;2023-08-12T02:15:54;5.47;;;4.10;;
36391;SDS011;22639;42.690;23.356;2023-08-12T02:18:20;4.45;;;4.05;;
36391;SDS011;22639;42.690;23.356;2023-08-12T02:20:46;4.20;;;3.80;;
36391;SDS011;22639;42.690;23.356;2023-08-12T02:23:11;5.07;;;4.57;;
36391;SDS011;22639;42.690;23.356;2023-08-12T02:25:37;4.28;;;3.88;;
36391;SDS011;22639;42.690;23.356;2023-08-12T02:28:02;4.72;;;4.15;;
36391;SDS011;22639;42.690;23.356;2023-08-12T02:30:28;4.63;;;4.22;;
36391;SDS011;22639;42.690;23.356;2023-08-12T02:32:54;4.40;;;4.00;;
36391;SDS011;22639;42.690;23.356;2023-08-12T02:35:20;5.63;;;3.72;;
36391;SDS011;22639;42.690;23.356;2023-08-12T02:37:49;6.95;;;4.18;;
36391;SDS011;22639;42.690;23.356;2023-08-12T02:40:14;4.65;;;4.25;;
36391;SDS011;22639;42.690;23.356;2023-08-12T02:42:40;4.82;;;3.70;;
36391;SDS011;22639;42.690;23.356;2023-08-12T02:45:05;3.67;;;3.38;;
36391;SDS011;22639;42.690;23.356;2023-08-12T02:47:30;4.25;;;3.85;;
36391;SDS011;22639;42.690;23.356;2023-08-12T02:49:56;5.78;;;3.95;;
36391;SDS011;22639;42.690;23.356;2023-08-12T02:52:21;3.78;;;3.47;;
36391;SDS011;22639;42.690;23.356;2023-08-12T02:54:46;4.65;;;4.22;;
36391;SDS011;22639;42.690;23.356;2023-08-12T02:57:11;5.07;;;4.57;;
36391;SDS011;22639;42.690;23.356;2023-08-12T02:59:36;6.18;;;4.53;;
36391;SDS011;22639;42.690;23.356;2023-08-12T03:02:02;4.55;;;3.58;;
36391;SDS011;22639;42.690;23.356;2023-08-12T03:04:28;6.63;;;4.60;;
36391;SDS011;22639;42.690;23.356;2023-08-12T03:06:55;4.72;;;3.75;;
36391;SDS011;22639;42.690;23.356;2023-08-12T03:09:20;5.45;;;4.00;;
36391;SDS011;22639;42.690;23.356;2023-08-12T03:11:46;4.57;;;4.18;;
36391;SDS011;22639;42.690;23.356;2023-08-12T03:14:11;4.25;;;3.85;;
36391;SDS011;22639;42.690;23.356;2023-08-12T03:16:37;5.80;;;4.00;;
36391;SDS011;22639;42.690;23.356;2023-08-12T03:19:02;6.40;;;4.65;;
36391;SDS011;22639;42.690;23.356;2023-08-12T03:21:27;4.35;;;3.95;;
36391;SDS011;22639;42.690;23.356;2023-08-12T03:23:53;4.22;;;3.80;;
36391;SDS011;22639;42.690;23.356;2023-08-12T03:26:18;4.50;;;4.10;;
36391;SDS011;22639;42.690;23.356;2023-08-12T03:28:43;5.63;;;4.30;;
36391;SDS011;22639;42.690;23.356;2023-08-12T03:31:08;5.68;;;4.72;;
36391;SDS011;22639;42.690;23.356;2023-08-12T03:33:33;4.70;;;4.20;;
36391;SDS011;22639;42.690;23.356;2023-08-12T03:35:59;5.38;;;4.88;;
36391;SDS011;22639;42.690;23.356;2023-08-12T03:38:24;6.25;;;4.50;;
36391;SDS011;22639;42.690;23.356;2023-08-12T03:40:49;5.80;;;4.65;;
36391;SDS011;22639;42.690;23.356;2023-08-12T03:43:15;4.75;;;4.35;;
36391;SDS011;22639;42.690;23.356;2023-08-12T03:45:43;7.43;;;4.75;;
36391;SDS011;22639;42.690;23.356;2023-08-12T03:48:09;6.20;;;4.85;;
36391;SDS011;22639;42.690;23.356;2023-08-12T03:50:34;10.75;;;6.10;;
36391;SDS011;22639;42.690;23.356;2023-08-12T03:53:00;6.78;;;6.05;;
36391;SDS011;22639;42.690;23.356;2023-08-12T03:55:25;6.85;;;5.43;;
36391;SDS011;22639;42.690;23.356;2023-08-12T03:57:50;6.35;;;5.80;;
36391;SDS011;22639;42.690;23.356;2023-08-12T04:00:16;7.55;;;6.70;;
36391;SDS011;22639;42.690;23.356;2023-08-12T04:02:42;6.65;;;6.00;;
36391;SDS011;22639;42.690;23.356;2023-08-12T04:05:08;6.57;;;5.97;;
36391;SDS011;22639;42.690;23.356;2023-08-12T04:07:35;8.18;;;6.28;;
36391;SDS011;22639;42.690;23.356;2023-08-12T04:10:01;5.72;;;5.22;;
36391;SDS011;22639;42.690;23.356;2023-08-12T04:12:26;5.68;;;5.13;;
36391;SDS011;22639;42.690;23.356;2023-08-12T04:14:51;6.03;;;5.43;;
36391;SDS011;22639;42.690;23.356;2023-08-12T04:17:16;5.20;;;4.70;;
36391;SDS011;22639;42.690;23.356;2023-08-12T04:19:41;6.72;;;5.43;;
36391;SDS011;22639;42.690;23.356;2023-08-12T04:22:07;5.32;;;4.47;;
36391;SDS011;22639;42.690;23.356;2023-08-12T04:24:32;7.22;;;4.60;;
36391;SDS011;22639;42.690;23.356;2023-08-12T04:26:57;5.28;;;4.13;;
36391;SDS011;22639;42.690;23.356;2023-08-12T04:29:22;7.25;;;4.80;;
36391;SDS011;22639;42.690;23.356;2023-08-12T04:31:48;4.93;;;4.32;;
36391;SDS011;22639;42.690;23.356;2023-08-12T04:34:13;4.57;;;4.18;;
36391;SDS011;22639;42.690;23.356;2023-08-12T04:36:38;5.00;;;4.07;;
36391;SDS011;22639;42.690;23.356;2023-08-12T04:39:03;4.63;;;4.22;;
36391;SDS011;22639;42.690;23.356;2023-08-12T04:41:29;5.00;;;4.50;;
36391;SDS011;22639;42.690;23.356;2023-08-12T04:43:55;4.47;;;4.07;;
36391;SDS011;22639;42.690;23.356;2023-08-12T04:46:20;5.20;;;4.70;;
36391;SDS011;22639;42.690;23.356;2023-08-12T04:48:45;6.15;;;4.53;;
36391;SDS011;22639;42.690;23.356;2023-08-12T04:51:10;6.50;;;4.65;;
36391;SDS011;22639;42.690;23.356;2023-08-12T04:53:36;4.35;;;3.88;;
36391;SDS011;22639;42.690;23.356;2023-08-12T04:56:01;4.63;;;4.07;;
36391;SDS011;22639;42.690;23.356;2023-08-12T04:58:27;5.88;;;3.55;;
36391;SDS011;22639;42.690;23.356;2023-08-12T05:00:52;5.50;;;4.00;;
36391;SDS011;22639;42.690;23.356;2023-08-12T05:03:17;4.13;;;3.67;;
36391;SDS011;22639;42.690;23.356;2023-08-12T05:05:42;4.20;;;3.75;;
36391;SDS011;22639;42.690;23.356;2023-08-12T05:08:08;3.78;;;3.47;;
36391;SDS011;22639;42.690;23.356;2023-08-12T05:10:33;4.28;;;3.42;;
36391;SDS011;22639;42.690;23.356;2023-08-12T05:12:58;4.53;;;3.15;;
36391;SDS011;22639;42.690;23.356;2023-08-12T05:15:24;4.53;;;3.67;;
36391;SDS011;22639;42.690;23.356;2023-08-12T05:17:49;4.07;;;3.67;;
36391;SDS011;22639;42.690;23.356;2023-08-12T05:20:14;3.50;;;3.00;;
36391;SDS011;22639;42.690;23.356;2023-08-12T05:22:39;3.40;;;2.95;;
36391;SDS011;22639;42.690;23.356;2023-08-12T05:25:05;4.13;;;3.47;;
36391;SDS011;22639;42.690;23.356;2023-08-12T05:27:30;5.72;;;3.25;;
36391;SDS011;22639;42.690;23.356;2023-08-12T05:29:55;3.35;;;3.05;;
36391;SDS011;22639;42.690;23.356;2023-08-12T05:32:20;3.08;;;2.80;;
36391;SDS011;22639;42.690;23.356;2023-08-12T05:34:46;3.20;;;2.90;;
36391;SDS011;22639;42.690;23.356;2023-08-12T05:37:11;3.10;;;2.88;;
36391;SDS011;22639;42.690;23.356;2023-08-12T05:39:36;3.45;;;3.15;;
36391;SDS011;22639;42.690;23.356;2023-08-12T05:42:01;5.25;;;3.15;;
36391;SDS011;22639;42.690;23.356;2023-08-12T05:44:26;4.45;;;3.28;;
36391;SDS011;22639;42.690;23.356;2023-08-12T05:46:52;3.58;;;3.28;;
36391;SDS011;22639;42.690;23.356;2023-08-12T05:49:17;3.15;;;2.85;;
36391;SDS011;22639;42.690;23.356;2023-08-12T05:51:42;5.03;;;3.03;;
36391;SDS011;22639;42.690;23.356;2023-08-12T05:54:08;3.78;;;2.88;;
36391;SDS011;22639;42.690;23.356;2023-08-12T05:56:33;3.30;;;3.00;;
36391;SDS011;22639;42.690;23.356;2023-08-12T05:58:58;3.83;;;3.38;;
36391;SDS011;22639;42.690;23.356;2023-08-12T06:01:24;4.68;;;2.97;;
36391;SDS011;22639;42.690;23.356;2023-08-12T06:03:49;4.88;;;3.22;;
36391;SDS011;22639;42.690;23.356;2023-08-12T06:06:14;3.75;;;2.72;;
36391;SDS011;22639;42.690;23.356;2023-08-12T06:08:39;3.25;;;2.88;;
36391;SDS011;22639;42.690;23.356;2023-08-12T06:11:05;9.30;;;3.25;;
36391;SDS011;22639;42.690;23.356;2023-08-12T06:13:30;3.83;;;3.10;;
36391;SDS011;22639;42.690;23.356;2023-08-12T06:15:56;4.95;;;3.20;;
36391;SDS011;22639;42.690;23.356;2023-08-12T06:18:22;5.85;;;2.72;;
36391;SDS011;22639;42.690;23.356;2023-08-12T06:20:47;3.50;;;3.20;;
36391;SDS011;22639;42.690;23.356;2023-08-12T06:23:12;3.15;;;2.85;;
36391;SDS011;22639;42.690;23.356;2023-08-12T06:25:37;3.65;;;3.08;;
36391;SDS011;22639;42.690;23.356;2023-08-12T06:28:03;3.33;;;3.03;;
36391;SDS011;22639;42.690;23.356;2023-08-12T06:30:29;2.95;;;2.67;;
36391;SDS011;22639;42.690;23.356;2023-08-12T06:32:55;3.85;;;2.25;;
36391;SDS011;22639;42.690;23.356;2023-08-12T06:35:20;4.40;;;3.20;;
36391;SDS011;22639;42.690;23.356;2023-08-12T06:37:45;5.15;;;3.10;;
36391;SDS011;22639;42.690;23.356;2023-08-12T06:40:10;3.40;;;3.10;;
36391;SDS011;22639;42.690;23.356;2023-08-12T06:42:36;4.20;;;2.97;;
36391;SDS011;22639;42.690;23.356;2023-08-12T06:45:01;4.30;;;3.53;;
36391;SDS011;22639;42.690;23.356;2023-08-12T06:47:28;5.40;;;2.92;;
36391;SDS011;22639;42.690;23.356;2023-08-12T06:49:54;3.42;;;2.90;;
36391;SDS011;22639;42.690;23.356;2023-08-12T06:52:20;6.63;;;3.20;;
36391;SDS011;22639;42.690;23.356;2023-08-12T06:54:45;3.75;;;3.45;;
36391;SDS011;22639;42.690;23.356;2023-08-12T06:57:10;4.07;;;3.67;;
36391;SDS011;22639;42.690;23.356;2023-08-12T06:59:36;3.67;;;3.22;;
36391;SDS011;22639;42.690;23.356;2023-08-12T07:02:02;3.30;;;3.00;;
36391;SDS011;22639;42.690;23.356;2023-08-12T07:04:28;3.17;;;2.70;;
36391;SDS011;22639;42.690;23.356;2023-08-12T07:06:53;3.25;;;2.83;;
36391;SDS011;22639;42.690;23.356;2023-08-12T07:09:19;6.45;;;3.80;;
36391;SDS011;22639;42.690;23.356;2023-08-12T07:11:49;3.55;;;3.00;;
36391;SDS011;22639;42.690;23.356;2023-08-12T07:14:14;5.72;;;2.90;;
36391;SDS011;22639;42.690;23.356;2023-08-12T07:16:41;4.55;;;3.50;;
36391;SDS011;22639;42.690;23.356;2023-08-12T07:19:06;4.65;;;3.50;;
36391;SDS011;22639;42.690;23.356;2023-08-12T07:21:31;3.50;;;3.22;;
36391;SDS011;22639;42.690;23.356;2023-08-12T07:23:57;5.32;;;3.50;;
36391;SDS011;22639;42.690;23.356;2023-08-12T07:26:22;3.30;;;3.00;;
36391;SDS011;22639;42.690;23.356;2023-08-12T07:28:48;2.90;;;2.70;;
36391;SDS011;22639;42.690;23.356;2023-08-12T07:31:13;3.63;;;3.00;;
36391;SDS011;22639;42.690;23.356;2023-08-12T07:33:38;3.88;;;3.20;;
36391;SDS011;22639;42.690;23.356;2023-08-12T07:36:03;3.13;;;2.90;;
36391;SDS011;22639;42.690;23.356;2023-08-12T07:38:29;2.70;;;2.50;;
36391;SDS011;22639;42.690;23.356;2023-08-12T07:40:55;3.10;;;2.50;;
36391;SDS011;22639;42.690;23.356;2023-08-12T07:43:22;3.00;;;2.80;;
36391;SDS011;22639;42.690;23.356;2023-08-12T07:45:56;4.10;;;2.88;;
36391;SDS011;22639;42.690;23.356;2023-08-12T07:48:21;2.90;;;2.70;;
36391;SDS011;22639;42.690;23.356;2023-08-12T07:50:46;3.15;;;2.85;;
36391;SDS011;22639;42.690;23.356;2023-08-12T07:53:15;4.75;;;2.85;;
36391;SDS011;22639;42.690;23.356;2023-08-12T07:55:41;3.90;;;3.03;;
36391;SDS011;22639;42.690;23.356;2023-08-12T07:58:06;3.97;;;2.85;;
36391;SDS011;22639;42.690;23.356;2023-08-12T08:00:32;3.63;;;2.77;;
36391;SDS011;22639;42.690;23.356;2023-08-12T08:05:35;5.10;;;3.03;;
36391;SDS011;22639;42.690;23.356;2023-08-12T08:08:00;3.95;;;2.90;;
36391;SDS011;22639;42.690;23.356;2023-08-12T08:10:25;2.93;;;2.63;;
36391;SDS011;22639;42.690;23.356;2023-08-12T08:12:51;4.28;;;2.85;;
36391;SDS011;22639;42.690;23.356;2023-08-12T08:15:16;3.10;;;2.80;;
36391;SDS011;22639;42.690;23.356;2023-08-12T08:17:41;3.88;;;3.58;;
36391;SDS011;22639;42.690;23.356;2023-08-12T08:20:07;3.10;;;2.88;;
36391;SDS011;22639;42.690;23.356;2023-08-12T08:22:33;4.55;;;2.58;;
36391;SDS011;22639;42.690;23.356;2023-08-12T08:24:59;3.20;;;2.58;;
36391;SDS011;22639;42.690;23.356;2023-08-12T08:27:24;2.95;;;2.70;;
36391;SDS011;22639;42.690;23.356;2023-08-12T08:29:49;5.90;;;2.38;;
36391;SDS011;22639;42.690;23.356;2023-08-12T08:32:15;2.95;;;2.60;;
36391;SDS011;22639;42.690;23.356;2023-08-12T08:34:43;2.75;;;2.50;;
36391;SDS011;22639;42.690;23.356;2023-08-12T08:37:08;2.50;;;2.30;;
36391;SDS011;22639;42.690;23.356;2023-08-12T08:39:35;3.20;;;3.00;;
36391;SDS011;22639;42.690;23.356;2023-08-12T08:42:01;4.35;;;2.30;;
36391;SDS011;22639;42.690;23.356;2023-08-12T08:44:28;2.90;;;2.63;;
36391;SDS011;22639;42.690;23.356;2023-08-12T08:46:54;4.07;;;2.58;;
36391;SDS011;22639;42.690;23.356;2023-08-12T08:49:19;3.03;;;2.50;;
36391;SDS011;22639;42.690;23.356;2023-08-12T08:51:46;2.92;;;2.72;;
36391;SDS011;22639;42.690;23.356;2023-08-12T08:54:11;2.60;;;2.40;;
36391;SDS011;22639;42.690;23.356;2023-08-12T08:56:37;4.90;;;2.28;;
36391;SDS011;22639;42.690;23.356;2023-08-12T08:59:06;2.13;;;2.03;;
36391;SDS011;22639;42.690;23.356;2023-08-12T09:01:31;2.88;;;2.67;;
36391;SDS011;22639;42.690;23.356;2023-08-12T09:03:57;3.08;;;2.22;;
36391;SDS011;22639;42.690;23.356;2023-08-12T09:06:25;3.08;;;2.70;;
36391;SDS011;22639;42.690;23.356;2023-08-12T09:08:55;2.65;;;2.10;;
36391;SDS011;22639;42.690;23.356;2023-08-12T09:11:21;2.80;;;2.60;;
36391;SDS011;22639;42.690;23.356;2023-08-12T09:13:46;3.08;;;2.88;;
36391;SDS011;22639;42.690;23.356;2023-08-12T09:16:12;2.45;;;2.25;;
36391;SDS011;22639;42.690;23.356;2023-08-12T09:18:39;2.53;;;2.33;;
36391;SDS011;22639;42.690;23.356;2023-08-12T09:21:05;2.90;;;2.70;;
36391;SDS011;22639;42.690;23.356;2023-08-12T09:23:40;3.27;;;2.97;;
36391;SDS011;22639;42.690;23.356;2023-08-12T09:26:12;3.00;;;2.35;;
36391;SDS011;22639;42.690;23.356;2023-08-12T09:28:37;2.83;;;2.35;;
36391;SDS011;22639;42.690;23.356;2023-08-12T09:31:02;4.18;;;3.28;;
36391;SDS011;22639;42.690;23.356;2023-08-12T09:33:28;3.25;;;2.95;;
36391;SDS011;22639;42.690;23.356;2023-08-12T09:35:53;2.75;;;2.50;;
36391;SDS011;22639;42.690;23.356;2023-08-12T09:38:18;3.38;;;2.80;;
36391;SDS011;22639;42.690;23.356;2023-08-12T09:40:43;3.07;;;2.67;;
36391;SDS011;22639;42.690;23.356;2023-08-12T09:43:11;4.03;;;2.60;;
36391;SDS011;22639;42.690;23.356;2023-08-12T09:45:38;2.55;;;2.35;;
36391;SDS011;22639;42.690;23.356;2023-08-12T09:48:04;2.33;;;2.22;;
36391;SDS011;22639;42.690;23.356;2023-08-12T09:50:29;3.58;;;1.95;;
36391;SDS011;22639;42.690;23.356;2023-08-12T09:52:55;2.50;;;2.30;;
36391;SDS011;22639;42.690;23.356;2023-08-12T09:55:22;2.70;;;2.10;;
36391;SDS011;22639;42.690;23.356;2023-08-12T09:57:48;2.50;;;2.30;;
36391;SDS011;22639;42.690;23.356;2023-08-12T10:00:15;2.90;;;2.63;;
36391;SDS011;22639;42.690;23.356;2023-08-12T10:05:12;3.08;;;2.78;;
36391;SDS011;22639;42.690;23.356;2023-08-12T10:07:38;2.55;;;2.35;;
36391;SDS011;22639;42.690;23.356;2023-08-12T10:10:04;3.25;;;2.60;;
36391;SDS011;22639;42.690;23.356;2023-08-12T10:12:30;2.72;;;2.53;;
36391;SDS011;22639;42.690;23.356;2023-08-12T10:14:57;2.65;;;2.45;;
36391;SDS011;22639;42.690;23.356;2023-08-12T10:17:22;3.03;;;2.70;;
36391;SDS011;22639;42.690;23.356;2023-08-12T10:19:49;3.40;;;2.05;;
36391;SDS011;22639;42.690;23.356;2023-08-12T10:22:19;3.28;;;2.40;;
36391;SDS011;22639;42.690;23.356;2023-08-12T10:24:44;2.67;;;2.47;;
36391;SDS011;22639;42.690;23.356;2023-08-12T10:27:10;2.70;;;2.50;;
36391;SDS011;22639;42.690;23.356;2023-08-12T10:29:37;3.05;;;2.60;;
36391;SDS011;22639;42.690;23.356;2023-08-12T10:32:03;4.20;;;2.40;;
36391;SDS011;22639;42.690;23.356;2023-08-12T10:34:28;2.35;;;2.13;;
36391;SDS011;22639;42.690;23.356;2023-08-12T10:36:57;2.88;;;2.67;;
36391;SDS011;22639;42.690;23.356;2023-08-12T10:39:28;2.45;;;2.25;;
36391;SDS011;22639;42.690;23.356;2023-08-12T10:41:54;2.58;;;2.38;;
36391;SDS011;22639;42.690;23.356;2023-08-12T10:44:20;2.50;;;2.30;;
36391;SDS011;22639;42.690;23.356;2023-08-12T10:46:50;2.30;;;1.80;;
36391;SDS011;22639;42.690;23.356;2023-08-12T10:49:19;3.58;;;2.33;;
36391;SDS011;22639;42.690;23.356;2023-08-12T10:51:49;2.00;;;1.90;;
36391;SDS011;22639;42.690;23.356;2023-08-12T10:54:25;2.67;;;2.47;;
36391;SDS011;22639;42.690;23.356;2023-08-12T11:02:27;2.75;;;2.53;;
36391;SDS011;22639;42.690;23.356;2023-08-12T11:05:00;2.38;;;2.17;;
36391;SDS011;22639;42.690;23.356;2023-08-12T11:10:25;3.95;;;2.00;;
36391;SDS011;22639;42.690;23.356;2023-08-12T11:18:10;2.22;;;2.10;;
36391;SDS011;22639;42.690;23.356;2023-08-12T11:20:37;3.30;;;1.98;;
36391;SDS011;22639;42.690;23.356;2023-08-12T11:23:03;3.75;;;2.35;;
36391;SDS011;22639;42.690;23.356;2023-08-12T11:25:29;2.58;;;2.05;;
36391;SDS011;22639;42.690;23.356;2023-08-12T11:27:55;2.38;;;2.17;;
36391;SDS011;22639;42.690;23.356;2023-08-12T11:30:21;2.35;;;2.15;;
36391;SDS011;22639;42.690;23.356;2023-08-12T11:32:48;2.47;;;2.28;;
36391;SDS011;22639;42.690;23.356;2023-08-12T11:35:14;2.15;;;2.00;;
36391;SDS011;22639;42.690;23.356;2023-08-12T11:37:41;3.90;;;2.30;;
36391;SDS011;22639;42.690;23.356;2023-08-12T11:40:07;2.38;;;2.17;;
36391;SDS011;22639;42.690;23.356;2023-08-12T11:42:34;3.72;;;2.03;;
36391;SDS011;22639;42.690;23.356;2023-08-12T11:44:59;2.42;;;2.22;;
36391;SDS011;22639;42.690;23.356;2023-08-12T11:47:25;2.95;;;2.45;;
36391;SDS011;22639;42.690;23.356;2023-08-12T11:49:52;2.35;;;2.15;;
36391;SDS011;22639;42.690;23.356;2023-08-12T11:52:17;3.35;;;1.92;;
36391;SDS011;22639;42.690;23.356;2023-08-12T11:54:42;2.10;;;2.00;;
36391;SDS011;22639;42.690;23.356;2023-08-12T11:57:08;2.00;;;1.88;;
36391;SDS011;22639;42.690;23.356;2023-08-12T11:59:33;2.08;;;1.92;;
36391;SDS011;22639;42.690;23.356;2023-08-12T12:02:01;2.38;;;2.17;;
36391;SDS011;22639;42.690;23.356;2023-08-12T12:04:26;2.50;;;2.30;;
36391;SDS011;22639;42.690;23.356;2023-08-12T12:06:51;1.92;;;1.83;;
36391;SDS011;22639;42.690;23.356;2023-08-12T12:09:17;2.20;;;2.00;;
36391;SDS011;22639;42.690;23.356;2023-08-12T12:11:43;2.55;;;2.35;;
36391;SDS011;22639;42.690;23.356;2023-08-12T12:14:09;2.53;;;1.80;;
36391;SDS011;22639;42.690;23.356;2023-08-12T12:19:03;3.42;;;2.58;;
36391;SDS011;22639;42.690;23.356;2023-08-12T12:21:30;2.42;;;2.22;;
36391;SDS011;22639;42.690;23.356;2023-08-12T12:23:56;2.60;;;2.40;;
36391;SDS011;22639;42.690;23.356;2023-08-12T12:26:22;3.03;;;2.72;;
36391;SDS011;22639;42.690;23.356;2023-08-12T12:28:47;2.42;;;2.22;;
36391;SDS011;22639;42.690;23.356;2023-08-12T12:31:13;2.53;;;2.33;;
36391;SDS011;22639;42.690;23.356;2023-08-12T12:33:40;2.60;;;2.40;;
36391;SDS011;22639;42.690;23.356;2023-08-12T12:36:05;2.45;;;2.25;;
36391;SDS011;22639;42.690;23.356;2023-08-12T12:38:31;2.88;;;2.40;;
36391;SDS011;22639;42.690;23.356;2023-08-12T12:40:56;2.78;;;2.53;;
36391;SDS011;22639;42.690;23.356;2023-08-12T12:43:21;2.53;;;2.33;;
36391;SDS011;22639;42.690;23.356;2023-08-12T12:45:47;2.45;;;2.30;;
36391;SDS011;22639;42.690;23.356;2023-08-12T12:48:12;2.38;;;2.05;;
36391;SDS011;22639;42.690;23.356;2023-08-12T12:50:37;2.70;;;2.50;;
36391;SDS011;22639;42.690;23.356;2023-08-12T12:53:03;2.20;;;2.10;;
36391;SDS011;22639;42.690;23.356;2023-08-12T12:55:28;4.18;;;2.90;;
36391;SDS011;22639;42.690;23.356;2023-08-12T12:57:53;2.85;;;2.20;;
36391;SDS011;22639;42.690;23.356;2023-08-12T13:00:18;3.15;;;2.10;;
36391;SDS011;22639;42.690;23.356;2023-08-12T13:02:44;2.83;;;2.53;;
36391;SDS011;22639;42.690;23.356;2023-08-12T13:05:09;3.92;;;2.33;;
36391;SDS011;22639;42.690;23.356;2023-08-12T13:07:34;2.63;;;2.42;;
36391;SDS011;22639;42.690;23.356;2023-08-12T13:09:59;3.45;;;2.58;;
36391;SDS011;22639;42.690;23.356;2023-08-12T13:12:25;2.30;;;2.10;;
36391;SDS011;22639;42.690;23.356;2023-08-12T13:14:50;4.00;;;3.55;;
36391;SDS011;22639;42.690;23.356;2023-08-12T13:17:16;3.08;;;2.88;;
36391;SDS011;22639;42.690;23.356;2023-08-12T13:19:42;2.90;;;2.40;;
36391;SDS011;22639;42.690;23.356;2023-08-12T13:22:07;3.10;;;2.70;;
36391;SDS011;22639;42.690;23.356;2023-08-12T13:24:32;2.22;;;2.03;;
36391;SDS011;22639;42.690;23.356;2023-08-12T13:26:58;2.50;;;2.30;;
36391;SDS011;22639;42.690;23.356;2023-08-12T13:29:23;2.28;;;2.08;;
36391;SDS011;22639;42.690;23.356;2023-08-12T13:31:48;2.50;;;2.22;;
36391;SDS011;22639;42.690;23.356;2023-08-12T13:34:14;2.88;;;2.30;;
36391;SDS011;22639;42.690;23.356;2023-08-12T13:36:39;2.25;;;2.05;;
36391;SDS011;22639;42.690;23.356;2023-08-12T13:39:04;2.38;;;2.17;;
36391;SDS011;22639;42.690;23.356;2023-08-12T13:41:30;2.67;;;2.00;;
36391;SDS011;22639;42.690;23.356;2023-08-12T13:43:55;4.25;;;2.10;;
36391;SDS011;22639;42.690;23.356;2023-08-12T13:46:21;2.75;;;2.30;;
36391;SDS011;22639;42.690;23.356;2023-08-12T13:48:46;5.18;;;2.35;;
36391;SDS011;22639;42.690;23.356;2023-08-12T13:51:11;4.60;;;2.17;;
36391;SDS011;22639;42.690;23.356;2023-08-12T13:53:36;3.22;;;2.17;;
36391;SDS011;22639;42.690;23.356;2023-08-12T13:56:02;2.70;;;2.33;;
36391;SDS011;22639;42.690;23.356;2023-08-12T13:58:27;2.25;;;2.05;;
36391;SDS011;22639;42.690;23.356;2023-08-12T14:00:53;2.47;;;2.28;;
36391;SDS011;22639;42.690;23.356;2023-08-12T14:03:18;2.22;;;2.03;;
36391;SDS011;22639;42.690;23.356;2023-08-12T14:05:44;2.88;;;1.67;;
36391;SDS011;22639;42.690;23.356;2023-08-12T14:08:09;1.55;;;1.45;;
36391;SDS011;22639;42.690;23.356;2023-08-12T14:10:34;2.03;;;1.92;;
36391;SDS011;22639;42.690;23.356;2023-08-12T14:12:59;2.08;;;1.98;;
36391;SDS011;22639;42.690;23.356;2023-08-12T14:15:25;2.30;;;1.95;;
36391;SDS011;22639;42.690;23.356;2023-08-12T14:17:50;2.20;;;1.85;;
36391;SDS011;22639;42.690;23.356;2023-08-12T14:20:15;2.58;;;2.10;;
36391;SDS011;22639;42.690;23.356;2023-08-12T14:22:41;2.38;;;2.17;;
36391;SDS011;22639;42.690;23.356;2023-08-12T14:25:06;3.28;;;2.08;;
36391;SDS011;22639;42.690;23.356;2023-08-12T14:27:32;1.65;;;1.55;;
36391;SDS011;22639;42.690;23.356;2023-08-12T14:29:57;2.58;;;2.08;;
36391;SDS011;22639;42.690;23.356;2023-08-12T14:32:22;2.38;;;2.00;;
36391;SDS011;22639;42.690;23.356;2023-08-12T14:34:47;2.40;;;2.00;;
36391;SDS011;22639;42.690;23.356;2023-08-12T14:37:13;2.53;;;2.03;;
36391;SDS011;22639;42.690;23.356;2023-08-12T14:39:38;2.60;;;1.95;;
36391;SDS011;22639;42.690;23.356;2023-08-12T14:42:05;3.92;;;2.10;;
36391;SDS011;22639;42.690;23.356;2023-08-12T14:44:30;2.10;;;2.00;;
36391;SDS011;22639;42.690;23.356;2023-08-12T14:46:57;2.53;;;2.33;;
36391;SDS011;22639;42.690;23.356;2023-08-12T14:49:23;4.45;;;2.00;;
36391;SDS011;22639;42.690;23.356;2023-08-12T14:51:48;2.22;;;1.80;;